sensor_id;sensor_type;location;lat;lon;timestamp;pressure;altitude;pressure_sealevel;temperature;humidity
5651;BME280;40241;52.684;9.758;2023-07-31T00:02:21;100725.25;;;19.23;64.89
5651;BME280;40241;52.684;9.758;2023-07-31T00:04:46;100719.50;;;19.28;64.86
5651;BME280;40241;52.684;9.758;2023-07-31T00:07:12;100715.97;;;19.28;64.90
5651;BME280;40241;52.684;9.758;2023-07-31T00:09:37;100718.59;;;19.33;64.90
5651;BME280;40241;52.684;9.758;2023-07-31T00:12:03;100713.38;;;19.30;64.92
5651;BME280;40241;52.684;9.758;2023-07-31T00:14:28;100715.59;;;19.31;65.10
5651;BME280;40241;52.684;9.758;2023-07-31T00:16:54;100721.19;;;19.31;65.08
5651;BME280;40241;52.684;9.758;2023-07-31T00:19:19;100705.38;;;19.34;64.87
5651;BME280;40241;52.684;9.758;2023-07-31T00:21:44;100702.59;;;19.34;65.04
5651;BME280;40241;52.684;9.758;2023-07-31T00:24:10;100706.47;;;19.23;65.01
5651;BME280;40241;52.684;9.758;2023-07-31T00:26:35;100704.13;;;19.35;65.07
5651;BME280;40241;52.684;9.758;2023-07-31T00:29:00;100702.97;;;19.30;65.16
5651;BME280;40241;52.684;9.758;2023-07-31T00:31:25;100698.13;;;19.31;64.98
5651;BME280;40241;52.684;9.758;2023-07-31T00:33:51;100716.34;;;19.32;65.02
5651;BME280;40241;52.684;9.758;2023-07-31T00:36:17;100686.66;;;19.34;65.18
5651;BME280;40241;52.684;9.758;2023-07-31T00:38:43;100688.88;;;19.36;65.21
5651;BME280;40241;52.684;9.758;2023-07-31T00:41:08;100695.78;;;19.35;65.26
5651;BME280;40241;52.684;9.758;2023-07-31T00:43:34;100677.72;;;19.36;65.05
5651;BME280;40241;52.684;9.758;2023-07-31T00:45:59;100689.81;;;19.38;64.94
5651;BME280;40241;52.684;9.758;2023-07-31T00:48:25;100683.66;;;19.40;65.08
5651;BME280;40241;52.684;9.758;2023-07-31T00:50:51;100666.22;;;19.39;65.06
5651;BME280;40241;52.684;9.758;2023-07-31T00:53:16;100658.19;;;19.36;65.11
5651;BME280;40241;52.684;9.758;2023-07-31T00:55:42;100675.13;;;19.38;65.23
5651;BME280;40241;52.684;9.758;2023-07-31T00:58:08;100677.38;;;19.39;65.13
5651;BME280;40241;52.684;9.758;2023-07-31T01:00:33;100678.66;;;19.38;65.12
5651;BME280;40241;52.684;9.758;2023-07-31T01:02:59;100682.19;;;19.39;65.13
5651;BME280;40241;52.684;9.758;2023-07-31T01:05:33;100668.06;;;19.37;65.21
5651;BME280;40241;52.684;9.758;2023-07-31T01:08:24;100663.75;;;19.36;65.43
5651;BME280;40241;52.684;9.758;2023-07-31T01:11:02;100673.63;;;19.37;65.60
5651;BME280;40241;52.684;9.758;2023-07-31T01:13:31;100663.75;;;19.36;65.20
5651;BME280;40241;52.684;9.758;2023-07-31T01:15:57;100667.66;;;19.33;65.23
5651;BME280;40241;52.684;9.758;2023-07-31T01:18:22;100686.94;;;19.31;65.34
5651;BME280;40241;52.684;9.758;2023-07-31T01:20:54;100669.31;;;19.28;65.46
5651;BME280;40241;52.684;9.758;2023-07-31T01:26:03;100667.66;;;19.33;65.30
5651;BME280;40241;52.684;9.758;2023-07-31T01:28:56;100661.53;;;19.34;65.54
5651;BME280;40241;52.684;9.758;2023-07-31T01:31:29;100654.22;;;19.31;65.53
5651;BME280;40241;52.684;9.758;2023-07-31T01:33:57;100654.41;;;19.33;65.28
5651;BME280;40241;52.684;9.758;2023-07-31T01:36:23;100654.97;;;19.32;65.44
5651;BME280;40241;52.684;9.758;2023-07-31T01:38:48;100634.31;;;19.27;65.58
5651;BME280;40241;52.684;9.758;2023-07-31T01:41:19;100678.75;;;19.25;65.43
5651;BME280;40241;52.684;9.758;2023-07-31T01:43:45;100637.88;;;19.28;65.54
5651;BME280;40241;52.684;9.758;2023-07-31T01:46:11;100638.81;;;19.30;65.54
5651;BME280;40241;52.684;9.758;2023-07-31T01:48:36;100626.16;;;19.29;65.43
5651;BME280;40241;52.684;9.758;2023-07-31T01:51:02;100633.03;;;19.28;65.41
5651;BME280;40241;52.684;9.758;2023-07-31T01:53:29;100632.63;;;19.24;65.63
5651;BME280;40241;52.684;9.758;2023-07-31T01:55:55;100633.75;;;19.29;65.44
5651;BME280;40241;52.684;9.758;2023-07-31T01:58:20;100629.69;;;19.30;65.74
5651;BME280;40241;52.684;9.758;2023-07-31T02:00:45;100629.13;;;19.31;65.64
5651;BME280;40241;52.684;9.758;2023-07-31T02:03:11;100632.47;;;19.30;65.70
5651;BME280;40241;52.684;9.758;2023-07-31T02:05:37;100636.03;;;19.30;65.79
5651;BME280;40241;52.684;9.758;2023-07-31T02:08:08;100611.84;;;19.33;65.77
5651;BME280;40241;52.684;9.758;2023-07-31T02:10:33;100619.69;;;19.34;65.86
5651;BME280;40241;52.684;9.758;2023-07-31T02:12:59;100612.78;;;19.35;65.84
5651;BME280;40241;52.684;9.758;2023-07-31T02:15:24;100614.09;;;19.34;65.75
5651;BME280;40241;52.684;9.758;2023-07-31T02:17:49;100603.47;;;19.33;65.83
5651;BME280;40241;52.684;9.758;2023-07-31T02:20:15;100620.44;;;19.35;65.89
5651;BME280;40241;52.684;9.758;2023-07-31T02:22:40;100606.69;;;19.37;65.78
5651;BME280;40241;52.684;9.758;2023-07-31T02:25:06;100610.00;;;19.35;65.77
5651;BME280;40241;52.684;9.758;2023-07-31T02:27:32;100606.13;;;19.38;65.84
5651;BME280;40241;52.684;9.758;2023-07-31T02:29:57;100596.06;;;19.35;65.86
5651;BME280;40241;52.684;9.758;2023-07-31T02:32:24;100596.25;;;19.37;65.93
5651;BME280;40241;52.684;9.758;2023-07-31T02:34:49;100592.91;;;19.39;65.89
5651;BME280;40241;52.684;9.758;2023-07-31T02:37:15;100618.22;;;19.41;65.90
5651;BME280;40241;52.684;9.758;2023-07-31T02:39:40;100594.56;;;19.42;65.99
5651;BME280;40241;52.684;9.758;2023-07-31T02:42:06;100598.69;;;19.41;66.02
5651;BME280;40241;52.684;9.758;2023-07-31T02:44:31;100604.44;;;19.43;65.96
5651;BME280;40241;52.684;9.758;2023-07-31T02:46:56;100603.13;;;19.44;66.22
5651;BME280;40241;52.684;9.758;2023-07-31T02:49:22;100599.81;;;19.46;66.04
5651;BME280;40241;52.684;9.758;2023-07-31T02:51:47;100593.28;;;19.43;66.17
5651;BME280;40241;52.684;9.758;2023-07-31T02:54:12;100595.16;;;19.48;66.09
5651;BME280;40241;52.684;9.758;2023-07-31T02:56:37;100597.19;;;19.48;65.89
5651;BME280;40241;52.684;9.758;2023-07-31T02:59:03;100590.31;;;19.49;66.04
5651;BME280;40241;52.684;9.758;2023-07-31T03:01:28;100594.41;;;19.48;66.00
5651;BME280;40241;52.684;9.758;2023-07-31T03:03:53;100591.44;;;19.46;66.08
5651;BME280;40241;52.684;9.758;2023-07-31T03:06:19;100592.75;;;19.52;65.99
5651;BME280;40241;52.684;9.758;2023-07-31T03:08:44;100602.97;;;19.50;65.89
5651;BME280;40241;52.684;9.758;2023-07-31T03:11:09;100607.25;;;19.51;65.98
5651;BME280;40241;52.684;9.758;2023-07-31T03:13:35;100579.34;;;19.51;66.08
5651;BME280;40241;52.684;9.758;2023-07-31T03:16:00;100584.19;;;19.50;66.16
5651;BME280;40241;52.684;9.758;2023-07-31T03:18:25;100590.31;;;19.49;66.13
5651;BME280;40241;52.684;9.758;2023-07-31T03:20:50;100598.88;;;19.51;66.07
5651;BME280;40241;52.684;9.758;2023-07-31T03:23:16;100586.22;;;19.50;66.18
5651;BME280;40241;52.684;9.758;2023-07-31T03:25:55;100578.03;;;19.52;66.39
5651;BME280;40241;52.684;9.758;2023-07-31T03:28:21;100582.13;;;19.51;66.19
5651;BME280;40241;52.684;9.758;2023-07-31T03:30:46;100570.97;;;19.51;66.03
5651;BME280;40241;52.684;9.758;2023-07-31T03:33:11;100597.75;;;19.54;66.28
5651;BME280;40241;52.684;9.758;2023-07-31T03:35:37;100596.47;;;19.55;66.27
5651;BME280;40241;52.684;9.758;2023-07-31T03:38:02;100577.66;;;19.55;66.06
5651;BME280;40241;52.684;9.758;2023-07-31T03:40:27;100575.44;;;19.54;66.30
5651;BME280;40241;52.684;9.758;2023-07-31T03:42:53;100579.34;;;19.51;66.11
5651;BME280;40241;52.684;9.758;2023-07-31T03:45:18;100582.13;;;19.51;66.27
5651;BME280;40241;52.684;9.758;2023-07-31T03:47:43;100579.34;;;19.51;66.14
5651;BME280;40241;52.684;9.758;2023-07-31T03:50:09;100576.75;;;19.53;66.45
5651;BME280;40241;52.684;9.758;2023-07-31T03:52:34;100572.47;;;19.52;66.32
5651;BME280;40241;52.684;9.758;2023-07-31T03:54:59;100579.53;;;19.53;66.36
5651;BME280;40241;52.684;9.758;2023-07-31T03:57:25;100564.47;;;19.48;66.41
5651;BME280;40241;52.684;9.758;2023-07-31T03:59:50;100562.59;;;19.51;66.47
5651;BME280;40241;52.684;9.758;2023-07-31T04:02:15;100568.72;;;19.49;66.38
5651;BME280;40241;52.684;9.758;2023-07-31T04:04:41;100574.50;;;19.51;66.31
5651;BME280;40241;52.684;9.758;2023-07-31T04:07:06;100564.09;;;19.52;66.58
5651;BME280;40241;52.684;9.758;2023-07-31T04:09:31;100581.59;;;19.52;66.53
5651;BME280;40241;52.684;9.758;2023-07-31T04:11:57;100573.03;;;19.50;66.56
5651;BME280;40241;52.684;9.758;2023-07-31T04:14:22;100560.56;;;19.51;66.48
5651;BME280;40241;52.684;9.758;2023-07-31T04:16:48;100555.91;;;19.54;66.45
5651;BME280;40241;52.684;9.758;2023-07-31T04:19:15;100557.22;;;19.53;66.51
5651;BME280;40241;52.684;9.758;2023-07-31T04:21:42;100550.88;;;19.52;66.51
5651;BME280;40241;52.684;9.758;2023-07-31T04:24:07;100540.47;;;19.53;66.58
5651;BME280;40241;52.684;9.758;2023-07-31T04:26:33;100553.13;;;19.46;66.55
5651;BME280;40241;52.684;9.758;2023-07-31T04:28:58;100545.50;;;19.54;66.50
5651;BME280;40241;52.684;9.758;2023-07-31T04:31:23;100553.13;;;19.54;66.45
5651;BME280;40241;52.684;9.758;2023-07-31T04:33:49;100554.06;;;19.56;66.59
5651;BME280;40241;52.684;9.758;2023-07-31T04:36:14;100552.00;;;19.57;66.49
5651;BME280;40241;52.684;9.758;2023-07-31T04:38:39;100560.38;;;19.57;66.49
5651;BME280;40241;52.684;9.758;2023-07-31T04:41:06;100559.81;;;19.58;66.47
5651;BME280;40241;52.684;9.758;2023-07-31T04:43:31;100556.84;;;19.56;66.63
5651;BME280;40241;52.684;9.758;2023-07-31T04:45:57;100540.66;;;19.55;66.62
5651;BME280;40241;52.684;9.758;2023-07-31T04:48:23;100550.16;;;19.59;66.54
5651;BME280;40241;52.684;9.758;2023-07-31T04:50:48;100556.84;;;19.56;66.50
5651;BME280;40241;52.684;9.758;2023-07-31T04:53:14;100554.97;;;19.59;66.69
5651;BME280;40241;52.684;9.758;2023-07-31T04:55:39;100545.88;;;19.58;66.66
5651;BME280;40241;52.684;9.758;2023-07-31T04:58:05;100547.16;;;19.57;66.65
5651;BME280;40241;52.684;9.758;2023-07-31T05:00:30;100567.06;;;19.54;66.64
5651;BME280;40241;52.684;9.758;2023-07-31T05:02:55;100593.28;;;19.51;66.64
5651;BME280;40241;52.684;9.758;2023-07-31T05:05:21;100542.34;;;19.50;66.64
5651;BME280;40241;52.684;9.758;2023-07-31T05:07:46;100541.00;;;19.51;66.86
5651;BME280;40241;52.684;9.758;2023-07-31T05:10:11;100537.28;;;19.49;66.81
5651;BME280;40241;52.684;9.758;2023-07-31T05:12:37;100532.28;;;19.47;66.78
5651;BME280;40241;52.684;9.758;2023-07-31T05:15:03;100526.31;;;19.51;66.87
5651;BME280;40241;52.684;9.758;2023-07-31T05:17:28;100518.16;;;19.53;66.88
5651;BME280;40241;52.684;9.758;2023-07-31T05:19:53;100525.22;;;19.54;66.93
5651;BME280;40241;52.684;9.758;2023-07-31T05:22:19;100525.22;;;19.54;66.92
5651;BME280;40241;52.684;9.758;2023-07-31T05:24:44;100528.19;;;19.56;66.84
5651;BME280;40241;52.684;9.758;2023-07-31T05:27:09;100518.88;;;19.53;66.97
5651;BME280;40241;52.684;9.758;2023-07-31T05:29:35;100511.44;;;19.56;66.79
5651;BME280;40241;52.684;9.758;2023-07-31T05:32:01;100515.34;;;19.53;67.01
5651;BME280;40241;52.684;9.758;2023-07-31T05:34:26;100503.97;;;19.51;66.89
5651;BME280;40241;52.684;9.758;2023-07-31T05:36:52;100501.59;;;19.55;66.89
5651;BME280;40241;52.684;9.758;2023-07-31T05:39:17;100511.06;;;19.52;66.96
5651;BME280;40241;52.684;9.758;2023-07-31T05:41:45;100503.63;;;19.54;66.99
5651;BME280;40241;52.684;9.758;2023-07-31T05:44:10;100515.53;;;19.55;67.03
5651;BME280;40241;52.684;9.758;2023-07-31T05:46:35;100511.25;;;19.54;66.96
5651;BME280;40241;52.684;9.758;2023-07-31T05:49:01;100496.56;;;19.53;66.99
5651;BME280;40241;52.684;9.758;2023-07-31T05:51:27;100492.09;;;19.58;66.93
5651;BME280;40241;52.684;9.758;2023-07-31T05:53:53;100493.03;;;19.53;66.90
5651;BME280;40241;52.684;9.758;2023-07-31T05:56:18;100504.38;;;19.55;66.92
5651;BME280;40241;52.684;9.758;2023-07-31T05:58:43;100486.53;;;19.50;66.99
5651;BME280;40241;52.684;9.758;2023-07-31T06:01:09;100495.63;;;19.51;66.96
5651;BME280;40241;52.684;9.758;2023-07-31T06:03:34;100490.97;;;19.53;67.09
5651;BME280;40241;52.684;9.758;2023-07-31T06:06:00;100496.56;;;19.53;67.11
5651;BME280;40241;52.684;9.758;2023-07-31T06:08:25;100505.31;;;19.50;67.20
5651;BME280;40241;52.684;9.758;2023-07-31T06:10:50;100486.88;;;19.47;67.07
5651;BME280;40241;52.684;9.758;2023-07-31T06:13:16;100480.56;;;19.46;67.19
5651;BME280;40241;52.684;9.758;2023-07-31T06:15:41;100482.78;;;19.48;67.24
5651;BME280;40241;52.684;9.758;2023-07-31T06:18:06;100480.75;;;19.48;67.29
5651;BME280;40241;52.684;9.758;2023-07-31T06:20:36;100481.13;;;19.52;67.21
5651;BME280;40241;52.684;9.758;2023-07-31T06:23:01;100474.03;;;19.51;67.21
5651;BME280;40241;52.684;9.758;2023-07-31T06:25:27;100482.06;;;19.55;67.32
5651;BME280;40241;52.684;9.758;2023-07-31T06:27:52;100481.31;;;19.54;67.21
5651;BME280;40241;52.684;9.758;2023-07-31T06:30:18;100494.50;;;19.54;67.42
5651;BME280;40241;52.684;9.758;2023-07-31T06:32:43;100471.25;;;19.51;67.39
5651;BME280;40241;52.684;9.758;2023-07-31T06:35:09;100480.38;;;19.52;67.42
5651;BME280;40241;52.684;9.758;2023-07-31T06:37:34;100480.19;;;19.50;67.52
5651;BME280;40241;52.684;9.758;2023-07-31T06:39:59;100483.16;;;19.52;67.65
5651;BME280;40241;52.684;9.758;2023-07-31T06:42:24;100458.97;;;19.54;67.42
5651;BME280;40241;52.684;9.758;2023-07-31T06:44:50;100465.50;;;19.57;67.51
5651;BME280;40241;52.684;9.758;2023-07-31T06:47:25;100480.56;;;19.61;67.83
5651;BME280;40241;52.684;9.758;2023-07-31T06:49:50;100473.09;;;19.64;67.57
5651;BME280;40241;52.684;9.758;2023-07-31T06:52:15;100468.84;;;19.63;67.65
5651;BME280;40241;52.684;9.758;2023-07-31T06:54:41;100462.31;;;19.60;67.65
5651;BME280;40241;52.684;9.758;2023-07-31T06:57:06;100470.13;;;19.62;67.61
5651;BME280;40241;52.684;9.758;2023-07-31T06:59:31;100474.59;;;19.65;67.62
5651;BME280;40241;52.684;9.758;2023-07-31T07:01:57;100477.38;;;19.65;67.61
5651;BME280;40241;52.684;9.758;2023-07-31T07:04:22;100462.13;;;19.66;67.63
5651;BME280;40241;52.684;9.758;2023-07-31T07:06:47;100473.31;;;19.66;67.62
5651;BME280;40241;52.684;9.758;2023-07-31T07:09:13;100450.03;;;19.63;67.72
5651;BME280;40241;52.684;9.758;2023-07-31T07:11:38;100447.44;;;19.65;67.83
5651;BME280;40241;52.684;9.758;2023-07-31T07:14:03;100455.25;;;19.67;67.86
5651;BME280;40241;52.684;9.758;2023-07-31T07:16:29;100460.81;;;19.67;67.93
5651;BME280;40241;52.684;9.758;2023-07-31T07:18:54;100458.59;;;19.65;68.11
5651;BME280;40241;52.684;9.758;2023-07-31T07:21:19;100466.22;;;19.65;68.04
5651;BME280;40241;52.684;9.758;2023-07-31T07:23:45;100472.34;;;19.71;68.12
5651;BME280;40241;52.684;9.758;2023-07-31T07:26:10;100463.78;;;19.69;67.99
5651;BME280;40241;52.684;9.758;2023-07-31T07:28:35;100474.78;;;19.67;68.14
5651;BME280;40241;52.684;9.758;2023-07-31T07:31:02;100462.69;;;19.72;68.30
5651;BME280;40241;52.684;9.758;2023-07-31T07:33:27;100491.34;;;19.72;68.36
5651;BME280;40241;52.684;9.758;2023-07-31T07:35:53;100485.94;;;19.74;67.98
5651;BME280;40241;52.684;9.758;2023-07-31T07:38:19;100459.91;;;19.72;68.09
5651;BME280;40241;52.684;9.758;2023-07-31T07:40:44;100456.16;;;19.69;68.42
5651;BME280;40241;52.684;9.758;2023-07-31T07:43:12;100458.75;;;19.75;68.15
5651;BME280;40241;52.684;9.758;2023-07-31T07:45:37;100452.44;;;19.74;68.29
5651;BME280;40241;52.684;9.758;2023-07-31T07:48:03;100477.19;;;19.78;68.26
5651;BME280;40241;52.684;9.758;2023-07-31T07:50:28;100470.50;;;19.81;68.03
5651;BME280;40241;52.684;9.758;2023-07-31T07:52:53;100470.66;;;19.83;68.40
5651;BME280;40241;52.684;9.758;2023-07-31T07:55:19;100466.75;;;19.86;68.49
5651;BME280;40241;52.684;9.758;2023-07-31T07:57:44;100485.75;;;19.87;68.20
5651;BME280;40241;52.684;9.758;2023-07-31T08:00:11;100457.81;;;19.87;68.26
5651;BME280;40241;52.684;9.758;2023-07-31T08:02:36;100486.63;;;19.90;68.22
5651;BME280;40241;52.684;9.758;2023-07-31T08:05:02;100457.25;;;19.89;68.22
5651;BME280;40241;52.684;9.758;2023-07-31T08:07:27;100463.19;;;19.93;68.35
5651;BME280;40241;52.684;9.758;2023-07-31T08:09:52;100466.16;;;19.95;68.18
5651;BME280;40241;52.684;9.758;2023-07-31T08:12:18;100460.75;;;19.97;68.28
5651;BME280;40241;52.684;9.758;2023-07-31T08:14:43;100472.69;;;19.97;68.33
5651;BME280;40241;52.684;9.758;2023-07-31T08:17:08;100455.72;;;20.03;68.41
5651;BME280;40241;52.684;9.758;2023-07-31T08:19:34;100490.91;;;20.06;68.20
5651;BME280;40241;52.684;9.758;2023-07-31T08:21:59;100457.56;;;20.08;68.04
5651;BME280;40241;52.684;9.758;2023-07-31T08:24:24;100470.19;;;20.16;67.90
5651;BME280;40241;52.684;9.758;2023-07-31T08:26:50;100467.78;;;20.21;67.88
5651;BME280;40241;52.684;9.758;2023-07-31T08:29:15;100451.78;;;20.21;68.06
5651;BME280;40241;52.684;9.758;2023-07-31T08:31:40;100443.19;;;20.27;67.98
5651;BME280;40241;52.684;9.758;2023-07-31T08:34:06;100449.50;;;20.27;67.99
5651;BME280;40241;52.684;9.758;2023-07-31T08:36:31;100454.72;;;20.31;67.95
5651;BME280;40241;52.684;9.758;2023-07-31T08:38:56;100448.00;;;20.34;67.90
5651;BME280;40241;52.684;9.758;2023-07-31T08:41:22;100479.84;;;20.38;67.97
5651;BME280;40241;52.684;9.758;2023-07-31T08:43:48;100441.47;;;20.39;67.81
5651;BME280;40241;52.684;9.758;2023-07-31T08:46:14;100446.84;;;20.44;67.73
5651;BME280;40241;52.684;9.758;2023-07-31T08:48:42;100444.56;;;20.50;67.83
5651;BME280;40241;52.684;9.758;2023-07-31T08:51:07;100445.25;;;20.66;67.85
5651;BME280;40241;52.684;9.758;2023-07-31T08:53:33;100438.13;;;20.72;67.73
5651;BME280;40241;52.684;9.758;2023-07-31T08:55:59;100448.69;;;20.81;67.63
5651;BME280;40241;52.684;9.758;2023-07-31T08:58:25;100431.34;;;20.83;67.47
5651;BME280;40241;52.684;9.758;2023-07-31T09:00:52;100427.78;;;20.82;67.37
5651;BME280;40241;52.684;9.758;2023-07-31T09:03:18;100474.59;;;20.82;67.45
5651;BME280;40241;52.684;9.758;2023-07-31T09:05:45;100427.19;;;20.91;67.31
5651;BME280;40241;52.684;9.758;2023-07-31T09:08:12;100419.88;;;20.96;67.27
5651;BME280;40241;52.684;9.758;2023-07-31T09:10:42;100411.50;;;20.96;67.09
5651;BME280;40241;52.684;9.758;2023-07-31T09:13:09;100427.84;;;21.00;66.98
5651;BME280;40241;52.684;9.758;2023-07-31T09:15:35;100434.75;;;21.06;67.13
5651;BME280;40241;52.684;9.758;2023-07-31T09:18:01;100408.59;;;21.11;66.99
5651;BME280;40241;52.684;9.758;2023-07-31T09:20:27;100410.47;;;21.09;67.00
5651;BME280;40241;52.684;9.758;2023-07-31T09:22:52;100412.94;;;21.05;67.02
5651;BME280;40241;52.684;9.758;2023-07-31T09:30:16;100397.56;;;21.13;67.07
5651;BME280;40241;52.684;9.758;2023-07-31T09:32:44;100415.28;;;21.16;66.95
5651;BME280;40241;52.684;9.758;2023-07-31T09:35:18;100392.16;;;21.15;66.76
5651;BME280;40241;52.684;9.758;2023-07-31T09:37:50;100400.13;;;21.19;66.77
5651;BME280;40241;52.684;9.758;2023-07-31T09:40:48;100390.09;;;21.16;66.55
5651;BME280;40241;52.684;9.758;2023-07-31T09:43:29;100394.19;;;21.15;66.70
5651;BME280;40241;52.684;9.758;2023-07-31T09:45:55;100389.69;;;21.19;66.70
5651;BME280;40241;52.684;9.758;2023-07-31T09:48:23;100390.84;;;21.16;66.41
5651;BME280;40241;52.684;9.758;2023-07-31T09:50:51;100394.78;;;21.13;66.74
5651;BME280;40241;52.684;9.758;2023-07-31T09:53:17;100397.41;;;21.11;66.75
5651;BME280;40241;52.684;9.758;2023-07-31T09:55:43;100386.78;;;21.10;66.71
5651;BME280;40241;52.684;9.758;2023-07-31T09:58:11;100380.44;;;21.09;66.61
5651;BME280;40241;52.684;9.758;2023-07-31T10:00:37;100378.41;;;21.10;66.61
5651;BME280;40241;52.684;9.758;2023-07-31T10:03:10;100373.38;;;21.08;66.62
5651;BME280;40241;52.684;9.758;2023-07-31T10:08:01;100382.84;;;21.13;66.68
5651;BME280;40241;52.684;9.758;2023-07-31T10:10:27;100381.69;;;21.16;66.69
5651;BME280;40241;52.684;9.758;2023-07-31T10:12:53;100380.03;;;21.13;66.73
5651;BME280;40241;52.684;9.758;2023-07-31T10:15:19;100371.47;;;21.11;66.93
5651;BME280;40241;52.684;9.758;2023-07-31T10:17:49;100366.06;;;21.13;66.82
5651;BME280;40241;52.684;9.758;2023-07-31T10:20:15;100367.13;;;21.17;66.81
5651;BME280;40241;52.684;9.758;2023-07-31T10:22:44;100369.75;;;21.15;66.76
5651;BME280;40241;52.684;9.758;2023-07-31T10:25:11;100413.22;;;21.16;66.75
5651;BME280;40241;52.684;9.758;2023-07-31T10:27:39;100358.91;;;21.19;66.90
5651;BME280;40241;52.684;9.758;2023-07-31T10:30:08;100362.44;;;21.20;67.04
5651;BME280;40241;52.684;9.758;2023-07-31T10:32:34;100363.38;;;21.22;66.80
5651;BME280;40241;52.684;9.758;2023-07-31T10:35:04;100347.88;;;21.21;66.90
5651;BME280;40241;52.684;9.758;2023-07-31T10:37:40;100356.38;;;21.31;66.90
5651;BME280;40241;52.684;9.758;2023-07-31T10:42:49;100331.78;;;21.46;67.00
5651;BME280;40241;52.684;9.758;2023-07-31T10:45:26;100331.69;;;21.54;67.21
5651;BME280;40241;52.684;9.758;2023-07-31T10:48:06;100333.50;;;21.59;66.87
5651;BME280;40241;52.684;9.758;2023-07-31T10:50:37;100340.00;;;21.61;66.65
5651;BME280;40241;52.684;9.758;2023-07-31T10:53:02;100321.31;;;21.64;66.88
5651;BME280;40241;52.684;9.758;2023-07-31T10:57:55;100323.09;;;21.69;66.55
5651;BME280;40241;52.684;9.758;2023-07-31T11:00:26;100321.81;;;21.70;66.53
5651;BME280;40241;52.684;9.758;2023-07-31T11:03:09;100313.25;;;21.68;66.54
5651;BME280;40241;52.684;9.758;2023-07-31T11:05:59;100321.06;;;21.70;66.44
5651;BME280;40241;52.684;9.758;2023-07-31T11:08:28;100310.75;;;21.72;66.54
5651;BME280;40241;52.684;9.758;2023-07-31T11:15:58;100323.44;;;21.73;66.33
5651;BME280;40241;52.684;9.758;2023-07-31T11:18:24;100330.34;;;21.72;66.50
5651;BME280;40241;52.684;9.758;2023-07-31T11:20:49;100306.66;;;21.73;66.59
5651;BME280;40241;52.684;9.758;2023-07-31T11:23:17;100311.25;;;21.78;66.54
5651;BME280;40241;52.684;9.758;2023-07-31T11:25:43;100303.59;;;21.79;66.39
5651;BME280;40241;52.684;9.758;2023-07-31T11:28:13;100310.69;;;21.80;66.15
5651;BME280;40241;52.684;9.758;2023-07-31T11:30:40;100309.94;;;21.79;66.36
5651;BME280;40241;52.684;9.758;2023-07-31T11:33:10;100304.16;;;21.77;66.61
5651;BME280;40241;52.684;9.758;2023-07-31T11:35:56;100295.44;;;21.73;66.21
5651;BME280;40241;52.684;9.758;2023-07-31T11:38:25;100298.06;;;21.71;66.36
5651;BME280;40241;52.684;9.758;2023-07-31T11:40:57;100295.63;;;21.75;66.38
5651;BME280;40241;52.684;9.758;2023-07-31T11:43:23;100305.22;;;21.82;66.24
5651;BME280;40241;52.684;9.758;2023-07-31T11:45:50;100274.44;;;21.82;66.10
5651;BME280;40241;52.684;9.758;2023-07-31T11:48:29;100295.28;;;21.88;65.96
5651;BME280;40241;52.684;9.758;2023-07-31T11:51:00;100281.13;;;21.86;65.96
5651;BME280;40241;52.684;9.758;2023-07-31T11:53:39;100283.56;;;21.82;65.78
5651;BME280;40241;52.684;9.758;2023-07-31T11:56:07;100289.84;;;21.73;65.91
5651;BME280;40241;52.684;9.758;2023-07-31T11:58:34;100284.66;;;21.70;65.96
5651;BME280;40241;52.684;9.758;2023-07-31T12:01:01;100288.34;;;21.72;66.10
5651;BME280;40241;52.684;9.758;2023-07-31T12:03:27;100280.53;;;21.71;65.87
5651;BME280;40241;52.684;9.758;2023-07-31T12:05:53;100282.00;;;21.72;66.08
5651;BME280;40241;52.684;9.758;2023-07-31T12:08:20;100298.06;;;21.71;65.83
5651;BME280;40241;52.684;9.758;2023-07-31T12:10:46;100299.47;;;21.62;66.02
5651;BME280;40241;52.684;9.758;2023-07-31T12:13:24;100291.81;;;21.63;65.93
5651;BME280;40241;52.684;9.758;2023-07-31T12:15:54;100285.16;;;21.58;66.01
5651;BME280;40241;52.684;9.758;2023-07-31T12:18:22;100286.97;;;21.63;66.07
5651;BME280;40241;52.684;9.758;2023-07-31T12:20:58;100291.50;;;21.59;66.70
5651;BME280;40241;52.684;9.758;2023-07-31T12:23:30;100280.31;;;21.59;66.65
5651;BME280;40241;52.684;9.758;2023-07-31T12:26:10;100298.34;;;21.48;66.97
5651;BME280;40241;52.684;9.758;2023-07-31T12:28:46;100283.59;;;21.48;66.96
5651;BME280;40241;52.684;9.758;2023-07-31T12:31:14;100283.13;;;21.42;66.87
5651;BME280;40241;52.684;9.758;2023-07-31T12:33:41;100287.00;;;21.46;66.79
5651;BME280;40241;52.684;9.758;2023-07-31T12:36:12;100271.66;;;21.47;67.15
5651;BME280;40241;52.684;9.758;2023-07-31T12:38:38;100279.50;;;21.49;67.16
5651;BME280;40241;52.684;9.758;2023-07-31T12:41:04;100267.88;;;21.52;66.99
5651;BME280;40241;52.684;9.758;2023-07-31T12:43:30;100259.06;;;21.56;67.12
5651;BME280;40241;52.684;9.758;2023-07-31T12:45:55;100276.75;;;21.58;67.35
5651;BME280;40241;52.684;9.758;2023-07-31T12:48:21;100269.09;;;21.59;67.23
5651;BME280;40241;52.684;9.758;2023-07-31T12:50:47;100266.91;;;21.57;67.33
5651;BME280;40241;52.684;9.758;2023-07-31T12:53:12;100256.59;;;21.60;67.40
5651;BME280;40241;52.684;9.758;2023-07-31T12:55:37;100252.47;;;21.61;67.33
5651;BME280;40241;52.684;9.758;2023-07-31T12:58:03;100259.28;;;21.67;67.39
5651;BME280;40241;52.684;9.758;2023-07-31T13:00:28;100264.13;;;21.67;67.46
5651;BME280;40241;52.684;9.758;2023-07-31T13:02:54;100261.09;;;21.73;67.37
5651;BME280;40241;52.684;9.758;2023-07-31T13:05:20;100250.38;;;21.79;67.45
5651;BME280;40241;52.684;9.758;2023-07-31T13:07:46;100251.88;;;21.80;67.33
5651;BME280;40241;52.684;9.758;2023-07-31T13:10:11;100259.91;;;21.76;67.36
5651;BME280;40241;52.684;9.758;2023-07-31T13:12:37;100261.09;;;21.73;67.54
5651;BME280;40241;52.684;9.758;2023-07-31T13:15:05;100257.22;;;21.68;67.52
5651;BME280;40241;52.684;9.758;2023-07-31T13:17:31;100260.63;;;21.67;67.42
5651;BME280;40241;52.684;9.758;2023-07-31T13:19:57;100251.16;;;21.62;67.44